Latest Weather Observations for Whoop Whoop*

IDT60801

Issued at 9:32 pm EDT Thursday 19 January 2017 (issued every 30 minutes, with the page automatically refreshed every 10 minutes)

About weather observations | Map of weather stations | Latest weather observations for ANT | Other Formats
Station Details ID: 300055 Name: DAVIS (WHOOP WHOOP) Lat: -68.47 Lon: 78.87 Height: 545.0 m
Data from the previous 72 hours. | See also: Recent months for locations in Antarctica
Date/Time
EDT
Temp
°C
App
Temp
°C
Dew
Point
°C
Rel
Hum
%
Delta-T
°C
Wind Press
QNH
hPa
Press
MSL
hPa
Rain since
9am
mm
Dir  Spd
km/h
Gust
km/h
Spd
kts
Gust
kts
19/09:30pm -2.2 -12.6 -9.1 59 - E 39 48 21 26 994.9 - -
19/09:00pm -1.7 -11.4 -10.2 52 - E 35 44 19 24 995.0 - -
19/08:30pm -1.5 -11.5 -9.3 55 - E 37 44 20 24 995.0 - -
19/08:00pm -1.2 -10.4 -8.8 56 - E 33 41 18 22 995.0 - -
19/07:30pm -1.4 -11.0 -8.8 57 - E 35 43 19 23 995.0 - -
19/07:00pm -1.9 -11.5 -9.0 58 - ENE 35 43 19 23 994.9 - -
19/06:30pm -2.2 -12.2 -9.5 57 - ENE 37 43 20 23 994.9 - -
19/06:00pm -2.6 -14.0 -9.5 59 - E 44 52 24 28 994.8 - -
19/05:30pm -3.0 -14.4 -9.4 61 - E 44 54 24 29 994.9 - -
19/05:00pm -3.3 -14.7 -9.9 60 - E 44 54 24 29 994.9 - -
19/04:30pm -3.4 -13.9 -10.2 59 - E 39 48 21 26 995.0 - -
19/04:00pm -3.8 -14.7 -10.6 59 - E 41 46 22 25 995.1 - -
19/03:30pm -4.5 -15.8 -11.5 58 - E 43 50 23 27 995.1 - -
19/03:00pm -4.8 -15.7 -11.3 60 - E 41 50 22 27 995.1 - -
19/02:30pm -5.2 -16.7 -11.9 59 - E 44 52 24 28 995.0 - -
19/02:00pm -5.8 -17.8 -12.5 59 - E 46 56 25 30 995.0 - -
19/01:30pm -6.2 -18.6 -13.1 58 - E 48 57 26 31 994.9 - -
19/01:20pm -6.2 -19.0 -13.3 57 - E 50 56 27 30 994.9 - -
19/01:00pm -6.5 -19.7 -13.4 58 - E 52 61 28 33 995.1 - -
19/12:30pm -6.8 -19.6 -13.9 57 - E 50 59 27 32 995.2 - -
19/12:00pm -7.1 -20.3 -14.1 57 - E 52 61 28 33 994.9 - -
19/11:30am -7.4 -20.2 -14.2 58 - E 50 57 27 31 995.0 - -
19/11:00am -7.7 -20.6 -14.7 57 - E 50 59 27 32 995.1 - -
19/10:30am -8.0 -20.5 -14.4 60 - E 48 57 26 31 995.2 - -
19/10:00am -7.9 -20.0 -14.5 59 - E 46 54 25 29 995.3 - -
19/09:30am -7.6 -19.7 -14.2 59 - E 46 54 25 29 995.1 - -
19/09:00am -7.6 -19.7 -14.0 60 - E 46 56 25 30 995.1 - -
19/08:30am -7.8 -19.2 -13.4 64 - E 43 50 23 27 995.2 - -
19/08:00am -7.7 -19.3 -13.3 64 - E 44 52 24 28 995.1 - -
19/07:30am -7.6 -19.2 -13.0 65 - E 44 52 24 28 995.1 - -
19/07:00am -7.4 -18.4 -12.6 66 - E 41 46 22 25 995.2 - -
19/06:30am -7.1 -17.7 -12.5 65 - E 39 46 21 25 995.3 - -
19/06:00am -7.2 -17.8 -12.6 65 - E 39 46 21 25 995.4 - -
19/05:30am -7.0 -17.6 -12.6 64 - E 39 44 21 24 995.3 - -
19/05:00am -6.6 -16.8 -12.1 65 - E 37 44 20 24 995.3 - -
19/04:30am -6.2 -16.0 -11.5 66 - E 35 43 19 23 995.2 - -
19/04:00am -5.9 -15.3 -11.0 67 - E 33 39 18 21 995.1 - -
19/03:30am -5.8 -15.2 -10.7 68 - ENE 33 43 18 23 995.0 - -
19/03:00am -5.5 -12.4 -10.1 70 - ENE 20 28 11 15 995.0 - -
19/02:30am -5.2 -12.8 -9.6 71 - ENE 24 32 13 17 994.9 - -
19/02:00am -5.0 -12.2 -9.2 72 - ENE 22 28 12 15 994.8 - -
19/01:30am -4.7 -11.5 -8.8 73 - ENE 20 28 11 15 994.7 - -
19/01:00am -4.3 -12.2 -8.2 74 - ENE 26 33 14 18 994.5 - -
19/12:30am -3.5 -11.3 -7.6 73 - ENE 26 33 14 18 994.5 - -
19/12:00am -2.9 -11.4 -7.4 71 - ENE 30 37 16 20 994.3 - -
 
Date/Time
EDT
Temp
°C
App
Temp
°C
Dew
Point
°C
Rel
Hum
%
Delta-T
°C
Wind Press
QNH
hPa
Press
MSL
hPa
Rain since
9am
mm
Dir  Spd
km/h
Gust
km/h
Spd
kts
Gust
kts
18/11:30pm -2.6 -11.7 -7.3 70 - ENE 33 41 18 22 994.2 - -
18/11:00pm -2.3 -11.7 -6.8 71 - ENE 35 46 19 25 994.2 - -
18/10:30pm -2.5 -12.4 -7.2 70 - NE 37 46 20 25 994.1 - -
18/09:30pm -2.3 -11.8 -7.2 69 - NE 35 44 19 24 994.1 - -
18/09:00pm -2.5 -13.1 -7.6 68 - NE 41 52 22 28 993.9 - -
18/08:30pm -2.6 -13.3 -8.3 65 - NE 41 50 22 27 993.7 - -
18/08:00pm -2.6 -13.7 -8.1 66 - NE 43 54 23 29 993.6 - -
18/07:30pm -2.8 -14.1 -8.1 67 - NE 44 54 24 29 993.5 - -
18/07:00pm -3.2 -14.4 -7.9 70 - NE 44 52 24 28 993.4 - -
18/06:30pm -3.5 -15.2 -8.3 69 - ENE 46 56 25 30 993.3 - -
18/06:00pm -3.6 -15.3 -9.0 66 - ENE 46 57 25 31 993.2 - -
18/05:30pm -3.9 -16.0 -9.3 66 - ENE 48 57 26 31 993.1 - -
18/05:00pm -4.1 -16.2 -9.3 67 - ENE 48 59 26 32 993.0 - -
18/04:30pm -4.3 -15.7 -9.9 65 - ENE 44 56 24 30 993.0 - -
18/04:00pm -4.7 -16.1 -10.1 66 - ENE 44 52 24 28 992.7 - -
18/03:30pm -5.1 -17.3 -10.4 66 - ENE 48 57 26 31 992.7 - -
18/03:00pm -5.3 -17.9 -10.6 66 - ENE 50 63 27 34 992.4 - -
18/02:30pm -5.7 -19.1 -11.4 64 - ENE 54 67 29 36 992.1 - -
18/02:00pm -5.9 -19.7 -11.8 63 - E 56 69 30 37 992.1 - -
18/01:30pm -6.3 -20.1 -12.0 64 - E 56 67 30 36 992.3 - -
18/01:00pm -6.8 -20.8 -12.3 65 - E 57 69 31 37 992.1 - -
18/12:30pm -6.9 -21.7 -12.5 64 - E 61 70 33 38 991.9 - -
18/11:30am -7.5 -22.3 -12.9 65 - E 61 70 33 38 992.2 - -
18/11:00am -7.7 -22.6 -13.3 64 - E 61 72 33 39 992.1 - -
18/10:30am -7.8 -23.0 -13.2 65 - E 63 72 34 39 992.0 - -
18/10:00am -7.7 -22.2 -13.1 65 - E 59 70 32 38 992.0 - -
18/09:30am -8.0 -21.5 -13.0 67 - E 54 63 29 34 992.6 - -
18/08:30am -8.0 -20.4 -13.0 67 - E 48 57 26 31 992.8 - -
18/08:00am -7.9 -19.9 -12.6 69 - E 46 57 25 31 992.8 - -
18/07:30am -7.8 -20.1 -12.5 69 - E 48 57 26 31 992.8 - -
18/07:00am -7.8 -19.4 -12.3 70 - ENE 44 52 24 28 992.8 - -
18/06:30am -7.5 -19.4 -12.0 70 - ENE 46 56 25 30 992.8 - -
18/06:00am -7.2 -18.7 -11.7 70 - ENE 44 52 24 28 992.8 - -
18/05:30am -7.0 -18.5 -11.3 71 - ENE 44 56 24 30 992.7 - -
18/05:00am -6.6 -18.1 -11.1 70 - E 44 52 24 28 992.7 - -
18/04:30am -6.7 -18.0 -10.9 72 - ENE 43 50 23 27 992.7 - -
18/04:00am -6.5 -17.0 -10.3 74 - ENE 39 48 21 26 992.7 - -
18/03:30am -6.2 -17.0 -9.9 75 - ENE 41 46 22 25 992.9 - -
18/03:00am -5.9 -16.3 -9.8 74 - ENE 39 46 21 25 992.9 - -
18/02:30am -5.5 -15.5 -9.4 74 - ENE 37 43 20 23 992.9 - -
18/01:30am -4.8 -14.4 -8.9 73 - NE 35 43 19 23 992.9 - -
18/01:00am -4.0 -13.2 -8.5 71 - NE 33 41 18 22 993.0 - -
18/12:30am -3.5 -12.5 -8.0 71 - NE 32 41 17 22 993.1 - -
18/12:00am -3.5 -11.7 -7.6 73 - NE 28 35 15 19 993.2 - -
 
Date/Time
EDT
Temp
°C
App
Temp
°C
Dew
Point
°C
Rel
Hum
%
Delta-T
°C
Wind Press
QNH
hPa
Press
MSL
hPa
Rain since
9am
mm
Dir  Spd
km/h
Gust
km/h
Spd
kts
Gust
kts
17/11:30pm -3.0 -10.8 -7.1 73 - NE 26 33 14 18 993.4 - -
17/11:00pm -2.7 -11.6 -7.4 70 - NE 32 37 17 20 993.6 - -
17/10:30pm -2.5 -11.7 -8.0 66 - ENE 33 43 18 23 993.6 - -
17/10:00pm -2.5 -11.6 -7.8 67 - ENE 33 43 18 23 993.6 - -
17/09:30pm -2.7 -11.3 -8.2 66 - ENE 30 35 16 19 993.9 - -
17/09:00pm -2.6 -10.8 -7.9 67 - NE 28 35 15 19 994.0 - -
17/08:30pm -2.7 -10.9 -8.0 67 - NE 28 33 15 18 993.8 - -
17/08:00pm -2.5 -11.1 -8.6 63 - NE 30 35 16 19 994.0 - -
17/07:30pm -2.5 -11.5 -8.4 64 - NE 32 41 17 22 994.1 - -
17/07:00pm -3.0 -11.6 -8.4 66 - NE 30 37 16 20 994.2 - -
17/06:30pm -2.9 -13.0 -10.0 58 - NE 37 44 20 24 994.2 - -
17/06:00pm -2.6 -11.7 -9.3 60 - NE 32 41 17 22 994.3 - -
17/05:30pm -2.9 -12.6 -10.4 56 - NE 35 48 19 26 994.2 - -
17/05:00pm -2.9 -11.7 -10.4 56 - NE 30 39 16 21 994.3 - -
17/04:30pm -3.2 -11.9 -9.8 60 - ENE 30 35 16 19 994.3 - -
17/04:00pm -3.8 -12.6 -10.0 62 - ENE 30 33 16 18 994.2 - -
17/03:30pm -4.2 -14.0 -11.0 59 - ENE 35 43 19 23 994.3 - -
17/03:00pm -4.9 -14.7 -11.7 59 - E 35 43 19 23 994.3 - -
17/02:30pm -5.1 -14.9 -11.4 61 - E 35 41 19 22 994.6 - -
17/02:00pm -5.6 -15.4 -11.9 61 - E 35 43 19 23 994.6 - -
17/01:30pm -6.3 -16.6 -12.6 61 - E 37 43 20 23 994.7 - -
17/12:30pm -7.4 -18.5 -13.6 61 - E 41 46 22 25 994.7 - -
17/12:00pm -7.7 -18.8 -13.7 62 - E 41 46 22 25 994.8 - -
17/11:30am -8.1 -19.2 -14.1 62 - E 41 46 22 25 995.0 - -
17/11:00am -8.6 -19.7 -14.3 63 - E 41 46 22 25 994.9 - -
17/10:30am -8.8 -19.9 -14.5 63 - E 41 48 22 26 995.1 - -
17/10:00am -9.1 -20.2 -14.6 64 - E 41 46 22 25 995.1 - -
17/09:30am -9.4 -20.2 -14.7 65 - E 39 46 21 25 995.3 - -
17/09:00am -9.2 -20.0 -14.5 65 - E 39 43 21 23 995.3 - -

Other Formats:

Comma delimited format used in spreadsheet applications
http://www.bom.gov.au/fwo/IDT60803/IDT60803.89570.axf

JavaScript Object Notation format (JSON) in row-major order
http://www.bom.gov.au/fwo/IDT60803/IDT60803.89570.json